createdAt,value
2019-03-20T00:00:04.843Z,98736.96
2019-03-20T00:02:37.237Z,98733.98
2019-03-20T00:05:05.327Z,98736.13
2019-03-20T00:07:35.634Z,98736.75
2019-03-20T00:10:07.243Z,98736.39
2019-03-20T00:12:37.259Z,98738.77
2019-03-20T00:15:24.487Z,98739.05
2019-03-20T00:20:39.593Z,98745.82
2019-03-20T00:23:13.597Z,98745.95
2019-03-20T00:25:44.335Z,98738.78
2019-03-20T00:28:11.856Z,98745.20
2019-03-20T00:30:57.330Z,98748.44
2019-03-20T00:33:30.335Z,98747.90
2019-03-20T00:36:00.799Z,98752.44
2019-03-20T00:38:32.216Z,98752.02
2019-03-20T00:41:04.433Z,98747.53
2019-03-20T00:43:38.871Z,98748.78
2019-03-20T00:46:02.894Z,98754.09
2019-03-20T00:48:30.262Z,98752.72
2019-03-20T00:51:14.780Z,98753.39
2019-03-20T00:53:47.996Z,98756.89
2019-03-20T00:56:18.652Z,98751.11
2019-03-20T00:58:47.609Z,98749.25
2019-03-20T01:01:20.624Z,98753.30
2019-03-20T01:03:49.438Z,98755.62
2019-03-20T01:06:17.243Z,98758.64
2019-03-20T01:08:45.146Z,98756.58
2019-03-20T01:11:16.574Z,98761.37
2019-03-20T01:13:43.173Z,98758.48
2019-03-20T01:16:14.264Z,98758.58
2019-03-20T01:18:42.004Z,98763.40
2019-03-20T01:21:08.608Z,98763.67
2019-03-20T01:23:37.429Z,98766.73
2019-03-20T01:26:04.962Z,98767.75
2019-03-20T01:28:31.657Z,98765.23
2019-03-20T01:31:00.038Z,98761.86
2019-03-20T01:36:17.644Z,98760.98
2019-03-20T01:38:47.683Z,98755.20
2019-03-20T01:41:19.080Z,98758.16
2019-03-20T01:43:47.077Z,98760.88
2019-03-20T01:46:14.107Z,98769.22
2019-03-20T01:48:41.946Z,98766.27
2019-03-20T01:51:09.902Z,98770.48
2019-03-20T01:53:50.131Z,98766.28
2019-03-20T01:56:17.825Z,98769.04
2019-03-20T01:58:44.501Z,98766.16
2019-03-20T02:01:13.315Z,98764.09
2019-03-20T02:03:43.701Z,98768.14
2019-03-20T02:06:11.678Z,98771.70
2019-03-20T02:08:50.888Z,98771.34
2019-03-20T02:11:21.536Z,98767.95
2019-03-20T02:14:07.668Z,98768.50
2019-03-20T02:16:21.625Z,98772.96
2019-03-20T02:21:33.832Z,98767.25
2019-03-20T02:24:00.629Z,98759.91
2019-03-20T02:26:27.251Z,98760.34
2019-03-20T02:28:55.311Z,98772.14
2019-03-20T02:31:22.036Z,98771.16
2019-03-20T02:33:49.960Z,98770.44
2019-03-20T02:36:16.926Z,98770.19
2019-03-20T02:38:43.568Z,98765.66
2019-03-20T02:41:10.476Z,98770.23
2019-03-20T02:43:37.293Z,98772.29
2019-03-20T02:46:03.890Z,98770.45
2019-03-20T02:48:30.522Z,98772.66
2019-03-20T02:50:57.150Z,98780.39
2019-03-20T02:53:24.041Z,98776.03
2019-03-20T02:55:50.719Z,98782.34
2019-03-20T02:58:17.307Z,98779.98
2019-03-20T03:00:43.968Z,98784.84
2019-03-20T03:03:10.581Z,98786.93
2019-03-20T03:05:37.463Z,98789.31
2019-03-20T03:08:04.390Z,98791.17
2019-03-20T03:10:31.146Z,98788.47
2019-03-20T03:12:57.785Z,98792.79
2019-03-20T03:15:24.426Z,98789.64
2019-03-20T03:17:51.410Z,98790.38
2019-03-20T03:20:18.194Z,98795.80
2019-03-20T03:22:44.901Z,98789.02
2019-03-20T03:25:11.737Z,98793.87
2019-03-20T03:27:38.459Z,98792.00
2019-03-20T03:30:05.205Z,98802.81
2019-03-20T03:32:31.815Z,98798.36
2019-03-20T03:34:58.599Z,98802.58
2019-03-20T03:37:25.466Z,98809.34
2019-03-20T03:39:52.484Z,98803.80
2019-03-20T03:42:19.167Z,98804.87
2019-03-20T03:44:46.069Z,98810.77
2019-03-20T03:47:12.905Z,98810.48
2019-03-20T03:49:40.194Z,98819.08
2019-03-20T03:52:06.896Z,98809.06
2019-03-20T03:54:34.709Z,98807.46
2019-03-20T03:57:01.535Z,98814.42
2019-03-20T03:59:28.399Z,98816.62
2019-03-20T04:01:55.032Z,98816.12
2019-03-20T04:04:21.946Z,98811.69
2019-03-20T04:06:48.629Z,98820.30
2019-03-20T04:09:17.563Z,98818.34
2019-03-20T04:11:44.215Z,98813.45
2019-03-20T04:14:11.075Z,98817.03
2019-03-20T04:22:14.957Z,98819.08
2019-03-20T04:27:33.141Z,98833.74
2019-03-20T04:30:03.875Z,98830.45
2019-03-20T04:32:41.640Z,98830.90
2019-03-20T04:35:10.276Z,98832.20
2019-03-20T04:37:38.049Z,98839.58
2019-03-20T04:40:09.216Z,98836.61
2019-03-20T04:42:40.156Z,98836.95
2019-03-20T04:45:09.223Z,98835.20
2019-03-20T04:47:40.152Z,98844.55
2019-03-20T04:50:10.660Z,98847.98
2019-03-20T04:52:38.394Z,98843.95
2019-03-20T04:55:12.724Z,98846.23
2019-03-20T04:57:45.823Z,98852.72
2019-03-20T05:00:16.108Z,98854.52
2019-03-20T05:02:42.692Z,98859.73
2019-03-20T05:05:09.654Z,98854.53
2019-03-20T05:07:36.302Z,98860.90
2019-03-20T05:10:03.213Z,98866.72
2019-03-20T05:12:31.112Z,98866.95
2019-03-20T05:14:57.778Z,98868.97
2019-03-20T05:17:24.363Z,98872.89
2019-03-20T05:19:51.003Z,98872.55
2019-03-20T05:22:20.928Z,98878.44
2019-03-20T05:24:47.801Z,98889.25
2019-03-20T05:27:14.692Z,98893.98
2019-03-20T05:29:41.578Z,98894.57
2019-03-20T05:32:09.580Z,98896.62
2019-03-20T05:34:37.251Z,98901.57
2019-03-20T05:37:10.256Z,98906.15
2019-03-20T05:39:33.479Z,98901.56
2019-03-20T05:42:00.396Z,98911.90
2019-03-20T05:44:27.292Z,98915.59
2019-03-20T05:46:56.506Z,98918.78
2019-03-20T05:49:25.738Z,98923.88
2019-03-20T05:51:52.710Z,98922.11
2019-03-20T05:54:20.557Z,98931.50
2019-03-20T05:56:47.482Z,98933.52
2019-03-20T05:59:15.073Z,98936.13
2019-03-20T06:01:41.674Z,98947.13
2019-03-20T06:04:09.511Z,98941.92
2019-03-20T06:06:36.456Z,98950.56
2019-03-20T06:09:11.436Z,98956.97
2019-03-20T06:11:42.364Z,98955.06
2019-03-20T06:14:14.094Z,98954.66
2019-03-20T06:19:26.629Z,98964.87
2019-03-20T06:21:59.143Z,98965.50
2019-03-20T06:24:26.231Z,98964.70
2019-03-20T06:26:54.824Z,98963.90
2019-03-20T06:29:21.733Z,98969.70
2019-03-20T06:31:52.483Z,98967.11
2019-03-20T06:34:24.130Z,98969.80
2019-03-20T06:36:52.377Z,98973.13
2019-03-20T06:39:21.360Z,98976.91
2019-03-20T06:41:48.446Z,98983.23
2019-03-20T06:44:17.456Z,98985.54
2019-03-20T06:46:44.077Z,98985.16
2019-03-20T06:49:11.739Z,98989.14
2019-03-20T06:51:38.448Z,98991.67
2019-03-20T06:54:12.277Z,98990.68
2019-03-20T06:56:39.511Z,98996.88
2019-03-20T06:59:13.916Z,99003.77
2019-03-20T07:01:40.160Z,99003.30
2019-03-20T07:04:07.002Z,99002.95
2019-03-20T07:06:33.797Z,99009.17
2019-03-20T07:09:00.898Z,99007.16
2019-03-20T07:11:27.664Z,99008.62
2019-03-20T07:13:57.613Z,99007.16
2019-03-20T07:16:24.300Z,99005.83
2019-03-20T07:18:52.025Z,99013.44
2019-03-20T07:21:19.777Z,99019.33
2019-03-20T07:23:46.778Z,99010.27
2019-03-20T07:26:14.999Z,99009.67
2019-03-20T07:28:42.129Z,99017.25
2019-03-20T07:31:15.149Z,99023.40
2019-03-20T07:33:52.266Z,99033.34
2019-03-20T07:36:34.849Z,99025.31
2019-03-20T07:39:18.694Z,99025.11
2019-03-20T07:41:48.752Z,99028.81
2019-03-20T07:44:22.613Z,99031.03
2019-03-20T07:46:52.070Z,99032.23
2019-03-20T07:49:23.178Z,99031.49
2019-03-20T07:51:54.328Z,99040.14
2019-03-20T07:54:24.425Z,99039.73
2019-03-20T07:56:51.271Z,99038.01
2019-03-20T07:59:21.036Z,99042.59
2019-03-20T08:01:48.066Z,99038.59
2019-03-20T08:04:19.149Z,99044.88
2019-03-20T08:06:49.351Z,99043.02
2019-03-20T08:09:16.101Z,99044.33
2019-03-20T08:11:46.021Z,99047.19
2019-03-20T08:14:15.496Z,99039.59
2019-03-20T08:16:43.988Z,99043.95
2019-03-20T08:19:11.933Z,99047.05
2019-03-20T08:21:39.893Z,99042.92
2019-03-20T08:24:06.867Z,99047.66
2019-03-20T08:26:39.693Z,99043.45
2019-03-20T08:29:04.456Z,99041.73
2019-03-20T08:31:31.965Z,99047.44
2019-03-20T08:34:01.503Z,99045.17
2019-03-20T08:36:32.756Z,99046.26
2019-03-20T08:39:00.833Z,99047.33
2019-03-20T08:41:31.763Z,99045.67
2019-03-20T08:46:46.304Z,99055.16
2019-03-20T08:49:17.012Z,99059.82
2019-03-20T08:51:49.258Z,99060.23
2019-03-20T08:54:16.560Z,99061.63
2019-03-20T08:56:47.555Z,99062.83
2019-03-20T08:59:35.909Z,99051.82
2019-03-20T09:02:07.328Z,99057.59
2019-03-20T09:04:39.974Z,99059.45
2019-03-20T09:07:07.347Z,99050.31
2019-03-20T09:09:37.345Z,99057.28
2019-03-20T09:12:17.578Z,99061.52
2019-03-20T09:14:47.966Z,99065.17
2019-03-20T09:17:18.777Z,99059.84
2019-03-20T09:19:48.673Z,99061.98
2019-03-20T09:22:19.328Z,99065.11
2019-03-20T09:24:47.251Z,99055.16
2019-03-20T09:27:16.787Z,99050.45
2019-03-20T09:29:44.719Z,99057.77
2019-03-20T09:32:11.673Z,99053.45
2019-03-20T09:34:45.766Z,99052.50
2019-03-20T09:37:15.927Z,99052.87
2019-03-20T09:39:43.627Z,99053.00
2019-03-20T09:44:59.772Z,99053.77
2019-03-20T09:47:26.692Z,99059.33
2019-03-20T09:49:56.417Z,99057.30
2019-03-20T09:52:25.639Z,99057.05
2019-03-20T09:54:56.355Z,99057.26
2019-03-20T09:57:25.356Z,99058.18
2019-03-20T09:59:53.005Z,99051.26
2019-03-20T10:02:24.097Z,99045.64
2019-03-20T10:04:53.603Z,99045.52
2019-03-20T10:07:24.533Z,99043.49
2019-03-20T10:09:54.826Z,99046.48
2019-03-20T10:12:22.280Z,99042.80
2019-03-20T10:14:52.080Z,99039.55
2019-03-20T10:17:20.437Z,99036.27
2019-03-20T10:19:47.065Z,99033.30
2019-03-20T10:22:14.264Z,99040.50
2019-03-20T10:24:41.183Z,99037.98
2019-03-20T10:27:07.860Z,99030.82
2019-03-20T10:29:34.956Z,99030.01
2019-03-20T10:32:01.584Z,99037.26
2019-03-20T10:34:38.836Z,99029.16
2019-03-20T10:36:56.571Z,99026.20
2019-03-20T10:39:24.092Z,99029.48
2019-03-20T10:41:50.700Z,99023.70
2019-03-20T10:44:17.465Z,99037.42
2019-03-20T10:46:44.174Z,99029.02
2019-03-20T10:49:10.796Z,99030.00
2019-03-20T10:51:37.460Z,99032.63
2019-03-20T10:54:04.570Z,99036.94
2019-03-20T10:56:31.516Z,99029.75
2019-03-20T10:58:58.241Z,99028.53
2019-03-20T11:01:24.945Z,99033.48
2019-03-20T11:03:51.883Z,99027.87
2019-03-20T11:06:18.544Z,99024.75
2019-03-20T11:08:45.669Z,99022.15
2019-03-20T11:11:12.789Z,99028.55
2019-03-20T11:13:39.401Z,99024.75
2019-03-20T11:16:06.417Z,99013.55
2019-03-20T11:18:33.303Z,99009.52
2019-03-20T11:21:00.875Z,99012.73
2019-03-20T11:23:27.818Z,99015.27
2019-03-20T11:25:55.669Z,99012.31
2019-03-20T11:28:22.300Z,99008.09
2019-03-20T11:30:49.566Z,98997.67
2019-03-20T11:33:16.257Z,98994.84
2019-03-20T11:35:43.163Z,98991.77
2019-03-20T11:38:09.994Z,99004.80
2019-03-20T11:40:36.709Z,98998.61
2019-03-20T11:43:03.465Z,98987.86
2019-03-20T11:45:30.280Z,98987.84
2019-03-20T11:47:57.245Z,98975.64
2019-03-20T11:50:24.169Z,98975.36
2019-03-20T11:52:51.565Z,98976.74
2019-03-20T11:55:18.167Z,98973.06
2019-03-20T11:57:45.051Z,98969.66
2019-03-20T12:00:11.801Z,98968.87
2019-03-20T12:02:38.446Z,98972.09
2019-03-20T12:05:05.193Z,98972.45
2019-03-20T12:07:32.168Z,98972.87
2019-03-20T12:09:59.037Z,98978.65
2019-03-20T12:12:26.106Z,98968.30
2019-03-20T12:14:52.818Z,98969.50
2019-03-20T12:20:04.993Z,98962.17
2019-03-20T12:22:31.920Z,98966.86
2019-03-20T12:24:58.631Z,98959.51
2019-03-20T12:27:26.534Z,98957.93
2019-03-20T12:29:53.164Z,98946.55
2019-03-20T12:32:20.078Z,98945.02
2019-03-20T12:34:47.078Z,98941.41
2019-03-20T12:37:13.808Z,98936.32
2019-03-20T12:39:40.811Z,98929.44
2019-03-20T12:42:09.396Z,98926.95
2019-03-20T12:44:36.052Z,98929.29
2019-03-20T12:47:02.723Z,98925.86
2019-03-20T12:49:29.811Z,98931.48
2019-03-20T12:51:56.663Z,98928.22
2019-03-20T12:54:23.862Z,98941.34
2019-03-20T12:56:50.612Z,98928.95
2019-03-20T12:59:17.278Z,98925.94
2019-03-20T13:01:44.142Z,98928.03
2019-03-20T13:04:10.963Z,98929.51
2019-03-20T13:06:38.197Z,98926.47
2019-03-20T13:09:04.861Z,98925.51
2019-03-20T13:11:31.502Z,98932.30
2019-03-20T13:13:58.117Z,98930.95
2019-03-20T13:16:25.127Z,98926.83
2019-03-20T13:18:51.804Z,98921.66
2019-03-20T13:21:19.499Z,98920.59
2019-03-20T13:23:46.127Z,98917.28
2019-03-20T13:26:13.122Z,98922.33
2019-03-20T13:28:39.921Z,98921.36
2019-03-20T13:31:07.093Z,98919.17
2019-03-20T13:33:34.054Z,98915.34
2019-03-20T13:36:00.667Z,98918.15
2019-03-20T13:38:27.558Z,98910.69
2019-03-20T13:40:54.492Z,98908.09
2019-03-20T13:43:21.952Z,98915.36
2019-03-20T13:45:48.991Z,98914.77
2019-03-20T13:48:15.606Z,98926.27
2019-03-20T13:50:42.319Z,98914.45
2019-03-20T13:53:09.134Z,98912.98
2019-03-20T13:55:36.211Z,98915.36
2019-03-20T13:58:02.881Z,98916.61
2019-03-20T14:00:29.512Z,98914.95
2019-03-20T14:02:56.215Z,98904.45
2019-03-20T14:05:23.134Z,98906.35
2019-03-20T14:07:50.425Z,98904.20
2019-03-20T14:10:25.065Z,98910.29
2019-03-20T14:12:45.621Z,98908.37
2019-03-20T14:15:12.390Z,98912.33
2019-03-20T14:17:39.848Z,98898.14
2019-03-20T14:20:07.024Z,98875.31
2019-03-20T14:22:33.729Z,98898.11
2019-03-20T14:25:00.407Z,98903.98
2019-03-20T14:27:27.458Z,98897.13
2019-03-20T14:29:54.452Z,98899.20
2019-03-20T14:32:21.901Z,98899.03
2019-03-20T14:34:49.007Z,98899.28
2019-03-20T14:37:15.651Z,98899.89
2019-03-20T14:39:43.935Z,98901.78
2019-03-20T14:42:10.673Z,98898.13
2019-03-20T14:44:37.917Z,98901.51
2019-03-20T14:47:05.572Z,98896.06
2019-03-20T14:49:32.261Z,98899.23
2019-03-20T14:51:59.027Z,98906.39
2019-03-20T14:54:26.264Z,98896.25
2019-03-20T14:56:53.176Z,98902.47
2019-03-20T14:59:20.308Z,98907.23
2019-03-20T15:01:47.160Z,98910.13
2019-03-20T15:04:14.484Z,98909.07
2019-03-20T15:06:41.544Z,98915.94
2019-03-20T15:09:08.191Z,98916.09
2019-03-20T15:11:34.830Z,98906.93
2019-03-20T15:14:01.519Z,98909.06
2019-03-20T15:16:28.596Z,98917.19
2019-03-20T15:18:55.219Z,98922.74
2019-03-20T15:21:22.067Z,98925.80
2019-03-20T15:23:49.137Z,98924.07
2019-03-20T15:26:16.105Z,98928.39
2019-03-20T15:28:43.133Z,98918.77
2019-03-20T15:31:09.826Z,98920.86
2019-03-20T15:33:36.773Z,98925.85
2019-03-20T15:36:03.484Z,98932.10
2019-03-20T15:38:30.278Z,98923.55
2019-03-20T15:40:57.104Z,98930.30
2019-03-20T15:43:24.251Z,98934.52
2019-03-20T15:45:50.994Z,98935.36
2019-03-20T15:48:19.408Z,98940.83
2019-03-20T15:50:46.337Z,98946.16
2019-03-20T15:53:13.273Z,98949.20
2019-03-20T15:55:39.930Z,98952.27
2019-03-20T15:58:06.828Z,98946.21
2019-03-20T16:00:33.643Z,98950.55
2019-03-20T16:03:00.288Z,98954.19
2019-03-20T16:05:26.977Z,98954.77
2019-03-20T16:07:54.067Z,98952.44
2019-03-20T16:10:20.826Z,98958.86
2019-03-20T16:12:47.426Z,98959.29
2019-03-20T16:15:14.524Z,98971.23
2019-03-20T16:17:41.168Z,98976.27
2019-03-20T16:20:07.789Z,98977.08
2019-03-20T16:22:34.703Z,98981.20
2019-03-20T16:25:01.642Z,98983.97
2019-03-20T16:27:28.250Z,98986.87
2019-03-20T16:29:54.900Z,98989.45
2019-03-20T16:32:22.156Z,98987.72
2019-03-20T16:34:48.913Z,98992.00
2019-03-20T16:37:16.178Z,98991.02
2019-03-20T16:39:43.075Z,98994.98
2019-03-20T16:42:09.981Z,99000.61
2019-03-20T16:44:36.662Z,99001.77
2019-03-20T16:47:03.298Z,99001.75
2019-03-20T16:49:29.947Z,99000.07
2019-03-20T16:51:56.606Z,98998.92
2019-03-20T16:54:24.966Z,98996.78
2019-03-20T16:56:51.928Z,99007.02
2019-03-20T16:59:18.930Z,99009.83
2019-03-20T17:01:45.572Z,99022.41
2019-03-20T17:04:12.461Z,99016.63
2019-03-20T17:06:39.362Z,99015.96
2019-03-20T17:09:07.223Z,99021.39
2019-03-20T17:11:38.276Z,99024.78
2019-03-20T17:14:02.678Z,99030.06
2019-03-20T17:16:29.494Z,99029.86
2019-03-20T17:18:56.446Z,99030.04
2019-03-20T17:21:23.491Z,99032.15
2019-03-20T17:23:50.199Z,99040.89
2019-03-20T17:26:16.990Z,99044.17
2019-03-20T17:28:43.741Z,99042.77
2019-03-20T17:31:10.392Z,99056.77
2019-03-20T17:33:36.955Z,99060.37
2019-03-20T17:36:04.953Z,99062.59
2019-03-20T17:38:32.648Z,99061.53
2019-03-20T17:40:59.453Z,99060.44
2019-03-20T17:43:26.139Z,99067.82
2019-03-20T17:45:53.014Z,99075.21
2019-03-20T17:48:19.799Z,99073.91
2019-03-20T17:50:46.453Z,99078.58
2019-03-20T17:53:13.085Z,99080.89
2019-03-20T17:55:40.079Z,99084.15
2019-03-20T17:58:07.097Z,99095.25
2019-03-20T18:00:34.029Z,99099.69
2019-03-20T18:03:00.738Z,99099.69
2019-03-20T18:05:27.473Z,99098.80
2019-03-20T18:07:54.100Z,99104.31
2019-03-20T18:10:21.163Z,99109.70
2019-03-20T18:12:47.911Z,99105.09
2019-03-20T18:15:15.752Z,99110.58
2019-03-20T18:17:42.613Z,99117.11
2019-03-20T18:20:09.324Z,99115.84
2019-03-20T18:22:35.943Z,99118.35
2019-03-20T18:25:03.348Z,99127.89
2019-03-20T18:27:34.822Z,99132.87
2019-03-20T18:30:01.710Z,99135.60
2019-03-20T18:32:30.499Z,99133.48
2019-03-20T18:40:37.043Z,99142.63
2019-03-20T18:45:54.805Z,99158.66
2019-03-20T18:48:23.889Z,99152.49
2019-03-20T18:50:52.443Z,99157.95
2019-03-20T18:53:44.953Z,99168.98
2019-03-20T18:55:55.256Z,99170.17
2019-03-20T18:58:23.709Z,99171.27
2019-03-20T19:00:53.178Z,99175.20
2019-03-20T19:03:22.896Z,99168.91
2019-03-20T19:05:54.375Z,99180.58
2019-03-20T19:08:21.897Z,99181.00
2019-03-20T19:10:53.950Z,99188.16
2019-03-20T19:13:33.430Z,99190.61
2019-03-20T19:16:00.722Z,99197.56
2019-03-20T19:18:31.740Z,99196.56
2019-03-20T19:20:59.742Z,99195.95
2019-03-20T19:23:28.125Z,99198.67
2019-03-20T19:25:55.804Z,99201.33
2019-03-20T19:28:25.571Z,99203.25
2019-03-20T19:30:56.739Z,99205.09
2019-03-20T19:33:25.866Z,99212.73
2019-03-20T19:35:57.201Z,99211.46
2019-03-20T19:38:34.781Z,99218.45
2019-03-20T19:40:58.315Z,99225.05
2019-03-20T19:43:36.679Z,99220.08
2019-03-20T19:46:08.390Z,99228.18
2019-03-20T19:48:36.049Z,99231.45
2019-03-20T19:51:07.341Z,99223.89
2019-03-20T19:53:36.810Z,99226.94
2019-03-20T19:56:06.709Z,99223.09
2019-03-20T19:58:40.685Z,99221.73
2019-03-20T20:01:07.484Z,99222.95
2019-03-20T20:03:37.109Z,99219.99
2019-03-20T20:06:04.862Z,99223.59
2019-03-20T20:08:33.030Z,99225.39
2019-03-20T20:11:03.735Z,99216.39
2019-03-20T20:13:30.964Z,99217.89
2019-03-20T20:16:03.636Z,99223.86
2019-03-20T20:21:16.423Z,99221.41
2019-03-20T20:23:45.091Z,99220.00
2019-03-20T20:26:11.783Z,99221.55
2019-03-20T20:28:38.723Z,99225.23
2019-03-20T20:31:05.475Z,99234.97
2019-03-20T20:33:32.120Z,99225.47
2019-03-20T20:35:59.408Z,99227.61
2019-03-20T20:38:26.003Z,99232.95
2019-03-20T20:40:53.864Z,99236.88
2019-03-20T20:43:21.255Z,99233.19
2019-03-20T20:45:48.162Z,99232.80
2019-03-20T20:48:15.079Z,99250.95
2019-03-20T20:50:41.768Z,99254.28
2019-03-20T20:53:08.409Z,99253.78
2019-03-20T20:55:35.047Z,99258.20
2019-03-20T20:58:01.767Z,99266.05
2019-03-20T21:00:28.669Z,99268.99
2019-03-20T21:02:55.506Z,99268.27
2019-03-20T21:05:22.546Z,99269.69
2019-03-20T21:07:49.207Z,99275.74
2019-03-20T21:10:15.834Z,99272.17
2019-03-20T21:12:55.199Z,99277.58
2019-03-20T21:15:11.614Z,99274.58
2019-03-20T21:17:38.236Z,99279.89
2019-03-20T21:20:06.736Z,99283.90
2019-03-20T21:22:33.658Z,99279.00
2019-03-20T21:25:00.439Z,99281.69
2019-03-20T21:27:27.300Z,99285.58
2019-03-20T21:29:54.201Z,99283.13
2019-03-20T21:32:20.850Z,99290.45
2019-03-20T21:34:47.552Z,99299.34
2019-03-20T21:37:14.434Z,99306.72
2019-03-20T21:39:41.150Z,99311.59
2019-03-20T21:42:07.933Z,99311.30
2019-03-20T21:44:34.591Z,99308.36
2019-03-20T21:47:01.503Z,99305.75
2019-03-20T21:49:28.173Z,99307.73
2019-03-20T21:51:55.166Z,99309.14
2019-03-20T21:54:22.045Z,99315.27
2019-03-20T21:56:48.934Z,99304.05
2019-03-20T21:59:16.808Z,99308.22
2019-03-20T22:01:43.505Z,99314.13
2019-03-20T22:04:10.280Z,99310.48
2019-03-20T22:06:36.989Z,99309.22
2019-03-20T22:09:03.598Z,99302.48
2019-03-20T22:11:30.212Z,99300.83
2019-03-20T22:13:56.881Z,99304.41
2019-03-20T22:16:23.729Z,99305.00
2019-03-20T22:21:23.854Z,99305.73
2019-03-20T22:26:35.497Z,99305.03
2019-03-20T22:29:02.539Z,99313.09
2019-03-20T22:31:30.207Z,99314.75
2019-03-20T22:33:56.824Z,99314.87
2019-03-20T22:36:23.445Z,99320.77
2019-03-20T22:38:51.431Z,99327.28
2019-03-20T22:41:19.046Z,99324.45
2019-03-20T22:43:46.479Z,99324.98
2019-03-20T22:46:14.284Z,99318.89
2019-03-20T22:48:45.471Z,99324.84
2019-03-20T22:51:12.646Z,99327.33
2019-03-20T22:53:39.625Z,99326.08
2019-03-20T22:56:07.235Z,99324.09
2019-03-20T22:58:34.622Z,99332.33
2019-03-20T23:01:01.221Z,99327.14
2019-03-20T23:03:27.820Z,99326.45
2019-03-20T23:05:55.739Z,99331.52
2019-03-20T23:08:23.509Z,99322.19
2019-03-20T23:10:50.199Z,99328.09
2019-03-20T23:13:19.217Z,99332.95
2019-03-20T23:15:46.182Z,99329.68
2019-03-20T23:18:12.817Z,99339.44
2019-03-20T23:20:40.411Z,99338.27
2019-03-20T23:23:07.035Z,99335.39
2019-03-20T23:25:38.615Z,99331.95
2019-03-20T23:28:05.552Z,99334.80
2019-03-20T23:30:33.293Z,99325.42
2019-03-20T23:33:00.109Z,99326.89
2019-03-20T23:35:27.041Z,99323.39
2019-03-20T23:37:54.245Z,99324.62
2019-03-20T23:40:21.883Z,99315.47
2019-03-20T23:42:49.745Z,99309.03
2019-03-20T23:45:17.470Z,99316.77
2019-03-20T23:47:45.114Z,99325.16
2019-03-20T23:50:12.966Z,99319.26
2019-03-20T23:52:40.190Z,99323.20
2019-03-20T23:55:09.363Z,99314.13
2019-03-20T23:57:36.379Z,99319.10
